createdAt,value
2022-09-14T00:00:36.607Z,10.55
2022-09-14T00:03:03.300Z,7.10
2022-09-14T00:05:29.875Z,8.88
2022-09-14T00:07:56.487Z,7.10
2022-09-14T00:10:23.351Z,13.23
2022-09-14T00:12:49.849Z,16.10
2022-09-14T00:15:16.461Z,20.13
2022-09-14T00:17:43.088Z,17.90
2022-09-14T00:20:10.085Z,10.95
2022-09-14T00:22:36.679Z,10.18
2022-09-14T00:25:03.773Z,12.40
2022-09-14T00:27:30.435Z,14.65
2022-09-14T00:29:56.956Z,10.77
2022-09-14T00:32:23.487Z,9.95
2022-09-14T00:34:50.116Z,9.43
2022-09-14T00:37:16.695Z,9.80
2022-09-14T00:39:43.385Z,8.50
2022-09-14T00:42:15.803Z,14.98
2022-09-14T00:44:42.274Z,11.05
2022-09-14T00:47:08.954Z,11.27
2022-09-14T00:49:39.864Z,9.20
2022-09-14T00:52:21.893Z,15.35
2022-09-14T00:54:56.621Z,8.20
2022-09-14T00:57:24.663Z,13.13
2022-09-14T00:59:53.098Z,8.43
2022-09-14T01:02:22.266Z,11.90
2022-09-14T01:04:50.235Z,13.43
2022-09-14T01:07:43.250Z,8.38
2022-09-14T01:10:10.148Z,9.75
2022-09-14T01:13:06.621Z,12.25
2022-09-14T01:15:45.215Z,9.20
2022-09-14T01:18:17.603Z,11.25
2022-09-14T01:20:59.363Z,11.18
2022-09-14T01:23:49.106Z,10.98
2022-09-14T01:26:39.879Z,9.57
2022-09-14T01:29:12.391Z,13.38
2022-09-14T01:31:50.300Z,7.43
2022-09-14T01:34:34.159Z,9.98
2022-09-14T01:37:22.433Z,8.20
2022-09-14T01:39:57.722Z,12.25
2022-09-14T01:42:27.435Z,9.20
2022-09-14T01:45:01.711Z,9.40
2022-09-14T01:47:42.888Z,9.00
2022-09-14T01:50:24.813Z,11.68
2022-09-14T01:53:14.063Z,8.82
2022-09-14T01:55:43.921Z,11.95
2022-09-14T01:58:31.403Z,11.25
2022-09-14T02:01:02.401Z,10.57
2022-09-14T02:03:35.740Z,12.80
2022-09-14T02:06:09.476Z,10.65
2022-09-14T02:08:36.302Z,9.38
2022-09-14T02:11:02.963Z,9.10
2022-09-14T02:13:29.788Z,11.70
2022-09-14T02:15:56.506Z,12.85
2022-09-14T02:18:23.131Z,9.88
2022-09-14T02:21:07.163Z,11.07
2022-09-14T02:23:35.743Z,10.07
2022-09-14T02:26:02.272Z,11.00
2022-09-14T02:28:28.845Z,17.08
2022-09-14T02:31:25.708Z,12.07
2022-09-14T02:34:13.914Z,11.55
2022-09-14T02:36:51.710Z,9.23
2022-09-14T02:39:35.411Z,15.43
2022-09-14T02:42:20.146Z,14.52
2022-09-14T02:44:59.043Z,16.40
2022-09-14T02:47:40.695Z,14.77
2022-09-14T02:50:35.105Z,15.98
2022-09-14T02:53:14.331Z,17.45
2022-09-14T02:55:46.919Z,19.95
2022-09-14T02:58:14.970Z,18.60
2022-09-14T03:00:50.753Z,19.42
2022-09-14T03:03:19.947Z,17.00
2022-09-14T03:05:47.596Z,16.55
2022-09-14T03:08:14.799Z,16.35
2022-09-14T03:10:44.817Z,16.00
2022-09-14T03:13:12.413Z,16.88
2022-09-14T03:15:39.208Z,17.20
2022-09-14T03:18:10.005Z,18.83
2022-09-14T03:20:38.924Z,18.67
2022-09-14T03:23:07.217Z,15.27
2022-09-14T03:25:40.472Z,17.50
2022-09-14T03:28:07.859Z,19.05
2022-09-14T03:30:35.420Z,17.02
2022-09-14T03:33:02.172Z,19.40
2022-09-14T03:35:31.429Z,21.80
2022-09-14T03:37:59.480Z,20.10
2022-09-14T03:40:27.619Z,17.13
2022-09-14T03:42:54.462Z,17.17
2022-09-14T03:45:21.848Z,17.95
2022-09-14T03:47:49.031Z,18.05
2022-09-14T03:50:17.201Z,14.68
2022-09-14T03:52:43.942Z,17.42
2022-09-14T03:55:10.799Z,15.02
2022-09-14T03:57:37.597Z,15.25
2022-09-14T04:00:06.699Z,18.60
2022-09-14T04:02:33.330Z,14.43
2022-09-14T04:04:59.914Z,18.67
2022-09-14T04:07:26.686Z,24.80
2022-09-14T04:09:53.227Z,11.55
2022-09-14T04:12:19.775Z,11.82
2022-09-14T04:14:46.309Z,14.80
2022-09-14T04:17:12.852Z,17.90
2022-09-14T04:19:40.962Z,15.20
2022-09-14T04:22:07.877Z,21.63
2022-09-14T04:24:34.659Z,16.17
2022-09-14T04:27:01.161Z,20.40
2022-09-14T04:29:30.474Z,25.85
2022-09-14T04:31:57.418Z,17.98
2022-09-14T04:34:23.983Z,24.20
2022-09-14T04:36:50.687Z,22.40
2022-09-14T04:39:17.307Z,19.80
2022-09-14T04:41:44.084Z,25.15
2022-09-14T04:44:10.823Z,17.90
2022-09-14T04:46:43.619Z,21.05
2022-09-14T04:49:13.067Z,24.48
2022-09-14T04:51:39.711Z,22.30
2022-09-14T04:54:07.243Z,19.15
2022-09-14T04:56:36.001Z,22.75
2022-09-14T04:59:04.423Z,20.73
2022-09-14T05:01:34.517Z,15.18
2022-09-14T05:04:01.352Z,12.00
2022-09-14T05:06:31.074Z,13.23
2022-09-14T05:08:59.167Z,10.95
2022-09-14T05:11:29.323Z,13.07
2022-09-14T05:13:57.237Z,9.15
2022-09-14T05:16:25.400Z,14.52
2022-09-14T05:18:55.048Z,11.68
2022-09-14T05:21:22.956Z,9.18
2022-09-14T05:23:57.967Z,13.70
2022-09-14T05:26:26.827Z,17.63
2022-09-14T05:28:56.826Z,9.55
2022-09-14T05:31:25.174Z,10.30
2022-09-14T05:33:52.253Z,12.77
2022-09-14T05:36:19.629Z,11.88
2022-09-14T05:38:46.624Z,10.80
2022-09-14T05:41:14.519Z,14.32
2022-09-14T05:43:42.081Z,11.50
2022-09-14T05:46:12.357Z,18.30
2022-09-14T05:48:40.250Z,10.20
2022-09-14T05:51:10.814Z,7.25
2022-09-14T05:53:37.503Z,10.45
2022-09-14T05:56:09.513Z,7.93
2022-09-14T05:58:37.256Z,11.27
2022-09-14T06:01:16.061Z,8.73
2022-09-14T06:03:43.764Z,11.13
2022-09-14T06:06:12.361Z,12.15
2022-09-14T06:08:39.479Z,13.55
2022-09-14T06:11:07.504Z,8.07
2022-09-14T06:13:34.520Z,12.45
2022-09-14T06:16:09.758Z,10.20
2022-09-14T06:18:37.768Z,13.15
2022-09-14T06:21:05.574Z,6.25
2022-09-14T06:23:33.284Z,8.38
2022-09-14T06:26:02.566Z,12.48
2022-09-14T06:28:30.311Z,11.88
2022-09-14T06:30:57.755Z,11.38
2022-09-14T06:33:25.022Z,11.65
2022-09-14T06:36:12.908Z,9.25
2022-09-14T06:38:40.512Z,11.27
2022-09-14T06:41:09.484Z,12.48
2022-09-14T06:43:41.255Z,15.30
2022-09-14T06:46:23.604Z,12.32
2022-09-14T06:48:56.054Z,12.65
2022-09-14T06:51:32.777Z,13.32
2022-09-14T06:54:00.971Z,13.80
2022-09-14T06:56:38.950Z,20.40
2022-09-14T06:59:07.265Z,14.70
2022-09-14T07:01:34.479Z,12.73
2022-09-14T07:04:01.671Z,20.67
2022-09-14T07:06:31.018Z,12.30
2022-09-14T07:08:58.170Z,19.73
2022-09-14T07:11:27.104Z,22.35
2022-09-14T07:13:57.319Z,15.45
2022-09-14T07:16:26.465Z,14.38
2022-09-14T07:18:58.086Z,17.70
2022-09-14T07:21:25.565Z,16.63
2022-09-14T07:23:52.528Z,11.18
2022-09-14T07:26:25.002Z,15.23
2022-09-14T07:28:55.517Z,18.98
2022-09-14T07:31:28.213Z,13.70
2022-09-14T07:33:56.840Z,13.60
2022-09-14T07:36:25.179Z,10.55
2022-09-14T07:38:53.442Z,13.23
2022-09-14T07:41:25.599Z,14.25
2022-09-14T07:46:20.281Z,17.45
2022-09-14T07:48:48.145Z,10.05
2022-09-14T07:51:14.952Z,19.08
2022-09-14T07:53:43.252Z,11.10
2022-09-14T07:56:11.583Z,21.38
2022-09-14T07:58:38.495Z,20.15
2022-09-14T08:01:12.152Z,13.18
2022-09-14T08:03:40.745Z,28.63
2022-09-14T08:06:10.894Z,13.75
2022-09-14T08:08:42.060Z,16.73
2022-09-14T08:11:42.848Z,15.00
2022-09-14T08:14:11.623Z,16.83
2022-09-14T08:16:39.143Z,20.63
2022-09-14T08:19:10.825Z,19.15
2022-09-14T08:21:37.389Z,18.10
2022-09-14T08:24:04.862Z,16.50
2022-09-14T08:26:31.899Z,18.77
2022-09-14T08:29:00.530Z,26.75
2022-09-14T08:31:28.535Z,37.75
2022-09-14T08:33:56.526Z,26.27
2022-09-14T08:36:24.529Z,29.20
2022-09-14T08:38:51.503Z,35.40
2022-09-14T08:41:55.236Z,29.40
2022-09-14T08:44:58.949Z,27.55
2022-09-14T08:47:32.339Z,36.35
2022-09-14T08:50:06.139Z,30.52
2022-09-14T08:52:39.304Z,28.95
2022-09-14T08:55:24.525Z,28.75
2022-09-14T08:58:01.543Z,36.60
2022-09-14T09:00:55.508Z,37.17
2022-09-14T09:03:45.489Z,35.03
2022-09-14T09:06:22.484Z,35.75
2022-09-14T09:09:02.769Z,28.70
2022-09-14T09:11:46.698Z,24.33
2022-09-14T09:14:31.196Z,28.67
2022-09-14T09:17:01.643Z,32.75
2022-09-14T09:19:41.382Z,28.63
2022-09-14T09:22:15.098Z,21.08
2022-09-14T09:24:50.542Z,26.45
2022-09-14T09:27:17.144Z,23.45
2022-09-14T09:29:44.123Z,21.95
2022-09-14T09:32:25.093Z,22.40
2022-09-14T09:34:51.991Z,24.13
2022-09-14T09:37:23.367Z,23.08
2022-09-14T09:39:50.770Z,26.73
2022-09-14T09:42:21.863Z,21.35
2022-09-14T09:45:04.074Z,30.83
2022-09-14T09:47:35.529Z,26.13
2022-09-14T09:50:06.658Z,26.90
2022-09-14T09:52:34.730Z,21.35
2022-09-14T09:55:03.012Z,28.30
2022-09-14T09:57:33.013Z,28.45
2022-09-14T10:00:11.715Z,23.02
2022-09-14T10:02:38.445Z,25.00
2022-09-14T10:05:11.151Z,19.33
2022-09-14T10:07:50.916Z,19.38
2022-09-14T10:10:20.387Z,21.55
2022-09-14T10:12:55.834Z,23.15
2022-09-14T10:15:31.812Z,19.23
2022-09-14T10:18:08.346Z,18.45
2022-09-14T10:20:37.238Z,16.00
2022-09-14T10:23:19.190Z,21.70
2022-09-14T10:28:33.671Z,19.58
2022-09-14T10:31:09.435Z,14.18
2022-09-14T10:33:36.949Z,13.90
2022-09-14T10:36:06.573Z,11.95
2022-09-14T10:38:42.617Z,11.15
2022-09-14T10:41:40.102Z,9.82
2022-09-14T10:44:22.849Z,15.25
2022-09-14T10:47:09.277Z,7.15
2022-09-14T10:49:48.263Z,9.50
2022-09-14T10:52:38.108Z,12.13
2022-09-14T10:55:07.315Z,7.78
2022-09-14T10:57:50.941Z,9.02
2022-09-14T11:00:20.240Z,7.22
2022-09-14T11:02:46.765Z,8.48
2022-09-14T11:05:30.727Z,8.90
2022-09-14T11:08:11.623Z,8.20
2022-09-14T11:11:01.187Z,8.95
2022-09-14T11:13:58.162Z,7.88
2022-09-14T11:16:44.348Z,10.60
2022-09-14T11:19:19.392Z,5.82
2022-09-14T11:21:56.782Z,9.65
2022-09-14T11:24:26.744Z,6.00
2022-09-14T11:27:08.821Z,7.97
2022-09-14T11:29:43.123Z,5.07
2022-09-14T11:32:22.051Z,7.68
2022-09-14T11:34:58.222Z,7.55
2022-09-14T11:37:58.375Z,9.70
2022-09-14T11:40:31.967Z,5.82
2022-09-14T11:43:06.030Z,5.65
2022-09-14T11:45:40.212Z,7.45
2022-09-14T11:48:42.714Z,6.38
2022-09-14T11:51:15.478Z,10.32
2022-09-14T11:53:43.724Z,6.30
2022-09-14T11:56:26.870Z,8.88
2022-09-14T11:59:03.605Z,7.28
2022-09-14T12:01:37.692Z,4.07
2022-09-14T12:04:08.839Z,6.70
2022-09-14T12:06:38.371Z,6.93
2022-09-14T12:09:31.882Z,6.93
2022-09-14T12:11:59.095Z,11.32
2022-09-14T12:14:29.595Z,12.95
2022-09-14T12:17:39.281Z,11.13
2022-09-14T12:20:36.732Z,4.45
2022-09-14T12:23:15.288Z,8.32
2022-09-14T12:25:53.318Z,9.32
2022-09-14T12:28:40.686Z,5.25
2022-09-14T12:31:33.031Z,8.13
2022-09-14T12:34:14.415Z,5.78
2022-09-14T12:36:40.877Z,7.53
2022-09-14T12:39:24.858Z,7.25
2022-09-14T12:41:51.329Z,10.30
2022-09-14T12:44:33.135Z,5.82
2022-09-14T12:47:25.434Z,10.38
2022-09-14T12:50:22.856Z,4.20
2022-09-14T12:53:13.534Z,6.20
2022-09-14T12:55:52.623Z,4.82
2022-09-14T12:58:25.525Z,7.47
2022-09-14T13:01:19.115Z,5.95
2022-09-14T13:03:55.020Z,8.57
2022-09-14T13:06:23.988Z,5.90
2022-09-14T13:08:55.524Z,7.97
2022-09-14T13:11:41.324Z,7.43
2022-09-14T13:14:24.070Z,9.15
2022-09-14T13:16:52.382Z,7.28
2022-09-14T13:19:30.866Z,6.43
2022-09-14T13:22:00.107Z,3.20
2022-09-14T13:24:47.786Z,6.93
2022-09-14T13:27:42.193Z,7.68
2022-09-14T13:30:11.725Z,9.98
2022-09-14T13:32:43.376Z,7.15
2022-09-14T13:35:38.924Z,7.15
2022-09-14T13:38:14.131Z,5.88
2022-09-14T13:40:40.759Z,7.53
2022-09-14T13:43:08.016Z,6.53
2022-09-14T13:45:35.249Z,7.35
2022-09-14T13:48:02.374Z,6.30
2022-09-14T13:50:29.042Z,9.27
2022-09-14T13:53:04.144Z,7.53
2022-09-14T13:55:33.933Z,9.55
2022-09-14T13:58:07.624Z,6.57
2022-09-14T14:00:53.797Z,7.60
2022-09-14T14:03:42.272Z,5.40
2022-09-14T14:06:26.040Z,8.35
2022-09-14T14:08:56.823Z,5.00
2022-09-14T14:11:29.122Z,5.07
2022-09-14T14:13:55.947Z,8.15
2022-09-14T14:16:26.525Z,5.40
2022-09-14T14:18:56.174Z,8.85
2022-09-14T14:21:22.788Z,8.25
2022-09-14T14:24:12.044Z,7.60
2022-09-14T14:26:38.432Z,7.57
2022-09-14T14:29:09.683Z,7.13
2022-09-14T14:31:36.224Z,8.05
2022-09-14T14:34:21.171Z,5.90
2022-09-14T14:36:50.002Z,12.38
2022-09-14T14:39:18.696Z,8.23
2022-09-14T14:41:45.579Z,9.05
2022-09-14T14:44:17.585Z,5.70
2022-09-14T14:46:45.652Z,8.13
2022-09-14T14:49:14.112Z,5.18
2022-09-14T14:51:41.226Z,9.30
2022-09-14T14:54:10.303Z,5.28
2022-09-14T14:56:38.538Z,7.05
2022-09-14T14:59:35.729Z,5.97
2022-09-14T15:02:02.511Z,7.72
2022-09-14T15:04:29.087Z,7.57
2022-09-14T15:06:55.720Z,6.25
2022-09-14T15:09:26.113Z,5.50
2022-09-14T15:11:54.685Z,7.35
2022-09-14T15:14:26.743Z,7.53
2022-09-14T15:16:57.927Z,5.22
2022-09-14T15:19:25.008Z,7.55
2022-09-14T15:21:51.711Z,7.72
2022-09-14T15:24:18.250Z,6.43
2022-09-14T15:26:45.071Z,5.35
2022-09-14T15:29:17.652Z,9.00
2022-09-14T15:31:44.474Z,7.28
2022-09-14T15:34:11.026Z,8.95
2022-09-14T15:36:47.953Z,5.20
2022-09-14T15:39:15.140Z,6.78
2022-09-14T15:41:42.483Z,7.13
2022-09-14T15:44:09.555Z,7.50
2022-09-14T15:46:36.457Z,5.78
2022-09-14T15:49:27.441Z,9.00
2022-09-14T15:51:55.843Z,7.20
2022-09-14T15:54:24.650Z,5.57
2022-09-14T15:56:55.027Z,8.30
2022-09-14T15:59:22.344Z,6.05
2022-09-14T16:01:49.558Z,9.30
2022-09-14T16:04:16.770Z,3.45
2022-09-14T16:06:43.510Z,8.27
2022-09-14T16:09:11.825Z,7.50
2022-09-14T16:11:39.745Z,10.75
2022-09-14T16:14:07.858Z,6.40
2022-09-14T16:16:35.311Z,9.00
2022-09-14T16:19:06.591Z,3.60
2022-09-14T16:21:33.374Z,7.63
2022-09-14T16:24:02.464Z,4.43
2022-09-14T16:26:33.531Z,7.82
2022-09-14T16:29:00.666Z,7.85
2022-09-14T16:31:32.807Z,8.25
2022-09-14T16:34:03.594Z,3.47
2022-09-14T16:36:33.273Z,5.40
2022-09-14T16:39:02.243Z,6.63
2022-09-14T16:41:29.655Z,8.07
2022-09-14T16:43:58.223Z,10.95
2022-09-14T16:46:26.960Z,7.35
2022-09-14T16:48:53.777Z,6.55
2022-09-14T16:51:24.037Z,8.73
2022-09-14T16:53:51.758Z,3.78
2022-09-14T16:56:22.236Z,4.97
2022-09-14T16:58:50.787Z,6.10
2022-09-14T17:01:17.299Z,4.22
2022-09-14T17:03:45.766Z,7.13
2022-09-14T17:06:14.675Z,4.20
2022-09-14T17:08:44.022Z,7.35
2022-09-14T17:11:12.095Z,4.60
2022-09-14T17:13:39.591Z,7.47
2022-09-14T17:16:09.144Z,4.15
2022-09-14T17:18:38.838Z,9.48
2022-09-14T17:21:09.241Z,5.07
2022-09-14T17:23:36.242Z,8.70
2022-09-14T17:26:05.600Z,5.30
2022-09-14T17:28:33.308Z,6.13
2022-09-14T17:31:01.416Z,6.35
2022-09-14T17:33:28.835Z,8.10
2022-09-14T17:35:58.356Z,6.78
2022-09-14T17:38:27.552Z,7.53
2022-09-14T17:41:01.845Z,3.88
2022-09-14T17:43:28.417Z,9.30
2022-09-14T17:45:56.809Z,4.35
2022-09-14T17:48:24.782Z,4.70
2022-09-14T17:50:51.607Z,5.57
2022-09-14T17:53:18.311Z,6.95
2022-09-14T17:55:44.931Z,2.33
2022-09-14T17:58:12.374Z,2.83
2022-09-14T18:00:41.152Z,2.88
2022-09-14T18:03:09.373Z,2.80
2022-09-14T18:05:38.901Z,3.00
2022-09-14T18:08:06.609Z,3.97
2022-09-14T18:10:36.091Z,1.50
2022-09-14T18:13:02.660Z,2.67
2022-09-14T18:15:30.989Z,4.03
2022-09-14T18:17:57.840Z,6.47
2022-09-14T18:20:24.406Z,18.00
2022-09-14T18:22:50.963Z,10.77
2022-09-14T18:25:17.687Z,8.75
2022-09-14T18:27:44.196Z,9.55
2022-09-14T18:30:11.201Z,10.90
2022-09-14T18:32:37.801Z,8.18
2022-09-14T18:35:04.751Z,7.20
2022-09-14T18:37:31.383Z,8.73
2022-09-14T18:39:58.097Z,9.10
2022-09-14T18:42:24.677Z,7.60
2022-09-14T18:44:53.927Z,8.43
2022-09-14T18:47:22.429Z,12.48
2022-09-14T18:49:50.033Z,9.75
2022-09-14T18:52:19.413Z,5.38
2022-09-14T18:54:45.960Z,6.03
2022-09-14T18:57:12.596Z,5.03
2022-09-14T18:59:39.154Z,16.90
2022-09-14T19:02:05.820Z,11.75
2022-09-14T19:04:32.457Z,13.82
2022-09-14T19:06:59.042Z,10.85
2022-09-14T19:09:25.893Z,6.82
2022-09-14T19:11:52.444Z,5.80
2022-09-14T19:14:20.615Z,8.90
2022-09-14T19:16:47.319Z,5.50
2022-09-14T19:19:15.320Z,9.63
2022-09-14T19:21:42.765Z,11.63
2022-09-14T19:24:16.805Z,7.05
2022-09-14T19:26:49.264Z,5.75
2022-09-14T19:29:20.051Z,13.98
2022-09-14T19:31:51.001Z,7.93
2022-09-14T19:34:22.811Z,13.43
2022-09-14T19:36:49.928Z,15.60
2022-09-14T19:39:16.548Z,11.65
2022-09-14T19:41:43.138Z,8.05
2022-09-14T19:44:11.099Z,12.35
2022-09-14T19:46:39.775Z,12.85
2022-09-14T19:49:19.826Z,8.07
2022-09-14T19:51:47.179Z,9.05
2022-09-14T19:54:13.975Z,5.60
2022-09-14T19:56:41.243Z,5.30
2022-09-14T19:59:08.625Z,8.80
2022-09-14T20:01:37.523Z,6.22
2022-09-14T20:04:05.701Z,9.45
2022-09-14T20:06:40.213Z,6.80
2022-09-14T20:09:09.908Z,2.90
2022-09-14T20:11:38.304Z,2.20
2022-09-14T20:14:07.207Z,1.50
2022-09-14T20:16:36.421Z,3.58
2022-09-14T20:19:07.269Z,5.38
2022-09-14T20:21:37.510Z,2.05
2022-09-14T20:24:22.000Z,4.20
2022-09-14T20:26:50.372Z,2.95
2022-09-14T20:29:18.563Z,2.75
2022-09-14T20:31:46.004Z,6.15
2022-09-14T20:34:14.124Z,3.72
2022-09-14T20:36:41.290Z,2.95
2022-09-14T20:39:07.891Z,5.65
2022-09-14T20:41:35.756Z,4.90
2022-09-14T20:44:03.555Z,7.90
2022-09-14T20:46:38.673Z,1.95
2022-09-14T20:49:08.651Z,4.47
2022-09-14T20:51:36.768Z,2.15
2022-09-14T20:54:05.117Z,3.10
2022-09-14T20:56:33.819Z,2.15
2022-09-14T20:59:03.665Z,3.78
2022-09-14T21:01:32.830Z,2.55
2022-09-14T21:04:09.086Z,2.22
2022-09-14T21:06:38.278Z,3.10
2022-09-14T21:09:06.535Z,1.17
2022-09-14T21:11:33.637Z,2.28
2022-09-14T21:14:00.562Z,2.60
2022-09-14T21:16:29.963Z,2.13
2022-09-14T21:18:59.015Z,1.38
2022-09-14T21:21:26.736Z,1.30
2022-09-14T21:23:55.870Z,3.80
2022-09-14T21:26:23.225Z,2.80
2022-09-14T21:28:55.556Z,2.95
2022-09-14T21:31:24.105Z,1.42
2022-09-14T21:33:52.756Z,5.30
2022-09-14T21:36:23.668Z,6.18
2022-09-14T21:38:52.215Z,5.22
2022-09-14T21:41:19.963Z,3.80
2022-09-14T21:43:47.158Z,7.20
2022-09-14T21:46:14.624Z,5.05
2022-09-14T21:48:41.875Z,6.13
2022-09-14T21:51:35.794Z,2.85
2022-09-14T21:54:09.216Z,7.20
2022-09-14T21:56:38.529Z,4.93
2022-09-14T21:59:10.500Z,3.40
2022-09-14T22:04:04.879Z,3.15
2022-09-14T22:06:32.648Z,2.85
2022-09-14T22:09:01.076Z,5.75
2022-09-14T22:11:31.492Z,4.13
2022-09-14T22:14:13.153Z,6.15
2022-09-14T22:16:40.520Z,7.60
2022-09-14T22:19:12.564Z,6.35
2022-09-14T22:24:09.860Z,8.10
2022-09-14T22:26:39.649Z,5.32
2022-09-14T22:29:08.776Z,4.13
2022-09-14T22:31:36.959Z,8.05
2022-09-14T22:34:03.499Z,5.47
2022-09-14T22:36:30.075Z,4.40
2022-09-14T22:38:58.674Z,3.60
2022-09-14T22:41:27.402Z,3.25
2022-09-14T22:43:54.757Z,6.50
2022-09-14T22:46:22.833Z,5.32
2022-09-14T22:48:50.656Z,4.70
2022-09-14T22:51:20.404Z,5.88
2022-09-14T22:53:47.403Z,5.63
2022-09-14T22:56:19.316Z,7.43
2022-09-14T23:01:16.868Z,5.70
2022-09-14T23:03:43.916Z,3.53
2022-09-14T23:06:10.760Z,5.55
2022-09-14T23:08:38.179Z,3.90
2022-09-14T23:11:07.299Z,5.70
2022-09-14T23:13:40.621Z,5.97
2022-09-14T23:16:15.500Z,6.80
2022-09-14T23:18:42.942Z,3.97
2022-09-14T23:21:10.060Z,6.55
2022-09-14T23:23:38.367Z,12.43
2022-09-14T23:26:10.782Z,6.60
2022-09-14T23:28:38.119Z,3.83
2022-09-14T23:31:05.894Z,8.10
2022-09-14T23:33:32.844Z,9.52
2022-09-14T23:35:59.427Z,3.67
2022-09-14T23:38:26.517Z,5.18
2022-09-14T23:40:53.186Z,4.82
2022-09-14T23:43:20.240Z,3.78
2022-09-14T23:45:48.200Z,7.90
2022-09-14T23:48:15.661Z,4.68
2022-09-14T23:50:42.295Z,8.68
2022-09-14T23:53:09.059Z,8.50
2022-09-14T23:55:35.663Z,4.88
2022-09-14T23:58:02.468Z,7.22
